sensor_id;sensor_type;location;lat;lon;timestamp;pressure;altitude;pressure_sealevel;temperature;humidity
77979;BME280;67169;50.268;8.694;2023-08-24T00:01:34;99842.28;;;16.48;85.46
77979;BME280;67169;50.268;8.694;2023-08-24T00:04:01;99850.69;;;16.44;86.26
77979;BME280;67169;50.268;8.694;2023-08-24T00:06:29;99850.84;;;16.41;86.33
77979;BME280;67169;50.268;8.694;2023-08-24T00:08:56;99848.31;;;16.37;86.49
77979;BME280;67169;50.268;8.694;2023-08-24T00:11:22;99849.41;;;16.35;86.49
77979;BME280;67169;50.268;8.694;2023-08-24T00:13:49;99850.47;;;16.32;86.31
77979;BME280;67169;50.268;8.694;2023-08-24T00:16:16;99786.38;;;16.00;86.51
77979;BME280;67169;50.268;8.694;2023-08-24T00:18:43;99855.22;;;16.43;86.26
77979;BME280;67169;50.268;8.694;2023-08-24T00:21:10;99852.16;;;16.49;86.08
77979;BME280;67169;50.268;8.694;2023-08-24T00:23:39;99828.69;;;16.48;85.83
77979;BME280;67169;50.268;8.694;2023-08-24T00:26:06;99843.03;;;16.50;85.86
77979;BME280;67169;50.268;8.694;2023-08-24T00:28:33;99846.91;;;16.46;85.99
77979;BME280;67169;50.268;8.694;2023-08-24T00:31:00;99825.56;;;16.40;85.93
77979;BME280;67169;50.268;8.694;2023-08-24T00:33:26;99835.19;;;16.46;85.99
77979;BME280;67169;50.268;8.694;2023-08-24T00:35:59;99833.22;;;16.48;85.70
77979;BME280;67169;50.268;8.694;2023-08-24T00:38:25;99838.56;;;16.49;85.79
77979;BME280;67169;50.268;8.694;2023-08-24T00:40:55;99843.41;;;16.44;85.97
77979;BME280;67169;50.268;8.694;2023-08-24T00:43:22;99839.06;;;16.42;86.28
77979;BME280;67169;50.268;8.694;2023-08-24T00:45:49;99804.88;;;16.23;86.20
77979;BME280;67169;50.268;8.694;2023-08-24T00:48:16;99828.88;;;16.45;86.15
77979;BME280;67169;50.268;8.694;2023-08-24T00:50:43;99824.63;;;16.55;86.09
77979;BME280;67169;50.268;8.694;2023-08-24T00:53:10;99807.16;;;16.45;85.77
77979;BME280;67169;50.268;8.694;2023-08-24T00:55:37;99831.31;;;16.50;85.96
77979;BME280;67169;50.268;8.694;2023-08-24T00:58:06;99821.69;;;16.44;86.37
77979;BME280;67169;50.268;8.694;2023-08-24T01:00:33;99834.56;;;16.41;86.64
77979;BME280;67169;50.268;8.694;2023-08-24T01:02:59;99832.72;;;16.41;86.98
77979;BME280;67169;50.268;8.694;2023-08-24T01:05:26;99842.28;;;16.48;86.74
77979;BME280;67169;50.268;8.694;2023-08-24T01:07:53;99842.34;;;16.47;86.47
77979;BME280;67169;50.268;8.694;2023-08-24T01:10:19;99843.91;;;16.51;86.99
77979;BME280;67169;50.268;8.694;2023-08-24T01:12:55;99858.56;;;16.48;86.78
77979;BME280;67169;50.268;8.694;2023-08-24T01:15:31;99860.56;;;16.45;87.47
77979;BME280;67169;50.268;8.694;2023-08-24T01:18:04;99863.00;;;16.49;87.05
77979;BME280;67169;50.268;8.694;2023-08-24T01:20:33;99863.88;;;16.50;86.99
77979;BME280;67169;50.268;8.694;2023-08-24T01:23:06;99843.88;;;16.36;86.88
77979;BME280;67169;50.268;8.694;2023-08-24T01:25:42;99864.44;;;16.41;87.29
77979;BME280;67169;50.268;8.694;2023-08-24T01:28:14;99856.19;;;16.28;87.63
77979;BME280;67169;50.268;8.694;2023-08-24T01:30:43;99862.97;;;16.35;87.38
77979;BME280;67169;50.268;8.694;2023-08-24T01:33:09;99863.16;;;16.32;87.86
77979;BME280;67169;50.268;8.694;2023-08-24T01:35:37;99861.09;;;16.21;88.44
77979;BME280;67169;50.268;8.694;2023-08-24T01:38:04;99852.66;;;16.26;87.93
77979;BME280;67169;50.268;8.694;2023-08-24T01:40:39;99846.25;;;16.27;88.05
77979;BME280;67169;50.268;8.694;2023-08-24T01:43:09;99837.03;;;16.15;88.04
77979;BME280;67169;50.268;8.694;2023-08-24T01:45:39;99833.53;;;16.13;88.00
77979;BME280;67169;50.268;8.694;2023-08-24T01:48:09;99850.25;;;16.21;87.84
77979;BME280;67169;50.268;8.694;2023-08-24T01:50:36;99851.09;;;16.22;88.14
77979;BME280;67169;50.268;8.694;2023-08-24T01:53:04;99852.06;;;16.21;88.51
77979;BME280;67169;50.268;8.694;2023-08-24T01:55:30;99827.97;;;16.00;88.54
77979;BME280;67169;50.268;8.694;2023-08-24T01:57:57;99855.22;;;16.13;88.80
77979;BME280;67169;50.268;8.694;2023-08-24T02:00:24;99853.13;;;16.18;88.07
77979;BME280;67169;50.268;8.694;2023-08-24T02:02:52;99844.03;;;16.19;88.06
77979;BME280;67169;50.268;8.694;2023-08-24T02:05:18;99848.94;;;16.12;88.40
77979;BME280;67169;50.268;8.694;2023-08-24T02:07:45;99845.25;;;16.13;88.27
77979;BME280;67169;50.268;8.694;2023-08-24T02:10:12;99840.56;;;16.01;88.30
77979;BME280;67169;50.268;8.694;2023-08-24T02:12:38;99835.50;;;15.95;88.87
77979;BME280;67169;50.268;8.694;2023-08-24T02:15:06;99835.84;;;15.89;88.90
77979;BME280;67169;50.268;8.694;2023-08-24T02:17:32;99837.88;;;15.85;89.51
77979;BME280;67169;50.268;8.694;2023-08-24T02:20:01;99841.44;;;15.86;89.38
77979;BME280;67169;50.268;8.694;2023-08-24T02:22:28;99821.38;;;15.74;89.11
77979;BME280;67169;50.268;8.694;2023-08-24T02:24:55;99814.91;;;15.77;89.10
77979;BME280;67169;50.268;8.694;2023-08-24T02:27:21;99852.41;;;15.84;89.80
77979;BME280;67169;50.268;8.694;2023-08-24T02:29:48;99847.44;;;15.77;90.51
77979;BME280;67169;50.268;8.694;2023-08-24T02:32:14;99842.88;;;15.77;90.62
77979;BME280;67169;50.268;8.694;2023-08-24T02:34:41;99840.75;;;15.82;90.59
77979;BME280;67169;50.268;8.694;2023-08-24T02:37:09;99818.75;;;15.73;90.63
77979;BME280;67169;50.268;8.694;2023-08-24T02:39:35;99805.28;;;15.71;90.28
77979;BME280;67169;50.268;8.694;2023-08-24T02:42:02;99832.88;;;15.94;89.45
77979;BME280;67169;50.268;8.694;2023-08-24T02:44:29;99815.53;;;15.96;89.60
77979;BME280;67169;50.268;8.694;2023-08-24T02:46:56;99822.56;;;16.00;89.28
77979;BME280;67169;50.268;8.694;2023-08-24T02:49:23;99799.72;;;15.88;89.42
77979;BME280;67169;50.268;8.694;2023-08-24T02:51:50;99822.97;;;15.93;89.06
77979;BME280;67169;50.268;8.694;2023-08-24T02:54:18;99804.56;;;15.83;89.34
77979;BME280;67169;50.268;8.694;2023-08-24T02:56:45;99812.59;;;15.85;89.67
77979;BME280;67169;50.268;8.694;2023-08-24T02:59:12;99825.00;;;15.89;89.79
77979;BME280;67169;50.268;8.694;2023-08-24T03:01:38;99804.63;;;15.82;89.86
77979;BME280;67169;50.268;8.694;2023-08-24T03:04:06;99807.97;;;15.87;90.05
77979;BME280;67169;50.268;8.694;2023-08-24T03:06:33;99805.25;;;15.87;90.08
77979;BME280;67169;50.268;8.694;2023-08-24T03:09:00;99814.16;;;15.89;90.55
77979;BME280;67169;50.268;8.694;2023-08-24T03:11:30;99806.13;;;15.87;90.70
77979;BME280;67169;50.268;8.694;2023-08-24T03:13:57;99797.38;;;15.82;90.86
77979;BME280;67169;50.268;8.694;2023-08-24T03:16:23;99823.38;;;15.86;91.30
77979;BME280;67169;50.268;8.694;2023-08-24T03:18:50;99826.09;;;15.86;91.41
77979;BME280;67169;50.268;8.694;2023-08-24T03:21:16;99812.97;;;15.63;91.82
77979;BME280;67169;50.268;8.694;2023-08-24T03:23:43;99798.78;;;15.58;91.56
77979;BME280;67169;50.268;8.694;2023-08-24T03:26:09;99807.53;;;15.47;92.07
77979;BME280;67169;50.268;8.694;2023-08-24T03:28:37;99782.63;;;15.40;92.61
77979;BME280;67169;50.268;8.694;2023-08-24T03:31:06;99793.53;;;15.55;92.36
77979;BME280;67169;50.268;8.694;2023-08-24T03:33:32;99784.63;;;15.53;92.71
77979;BME280;67169;50.268;8.694;2023-08-24T03:35:59;99789.44;;;15.48;93.22
77979;BME280;67169;50.268;8.694;2023-08-24T03:38:27;99774.41;;;15.42;92.92
77979;BME280;67169;50.268;8.694;2023-08-24T03:40:59;99785.09;;;15.45;92.63
77979;BME280;67169;50.268;8.694;2023-08-24T03:43:26;99798.25;;;15.51;92.42
77979;BME280;67169;50.268;8.694;2023-08-24T03:45:54;99790.75;;;15.40;92.66
77979;BME280;67169;50.268;8.694;2023-08-24T03:48:20;99795.13;;;15.43;92.82
77979;BME280;67169;50.268;8.694;2023-08-24T03:50:47;99789.59;;;15.44;93.08
77979;BME280;67169;50.268;8.694;2023-08-24T03:53:13;99784.13;;;15.46;93.62
77979;BME280;67169;50.268;8.694;2023-08-24T03:55:40;99783.94;;;15.49;93.57
77979;BME280;67169;50.268;8.694;2023-08-24T03:58:06;99764.69;;;15.54;93.46
77979;BME280;67169;50.268;8.694;2023-08-24T04:00:33;99760.81;;;15.58;93.28
77979;BME280;67169;50.268;8.694;2023-08-24T04:03:01;99768.72;;;15.62;93.18
77979;BME280;67169;50.268;8.694;2023-08-24T04:05:27;99766.72;;;15.66;92.42
77979;BME280;67169;50.268;8.694;2023-08-24T04:07:54;99761.44;;;15.63;92.69
77979;BME280;67169;50.268;8.694;2023-08-24T04:10:20;99773.94;;;15.81;92.33
77979;BME280;67169;50.268;8.694;2023-08-24T04:12:47;99751.91;;;15.72;92.09
77979;BME280;67169;50.268;8.694;2023-08-24T04:15:14;99758.53;;;15.82;92.11
77979;BME280;67169;50.268;8.694;2023-08-24T04:17:40;99751.94;;;15.86;92.48
77979;BME280;67169;50.268;8.694;2023-08-24T04:20:09;99753.63;;;15.88;92.51
77979;BME280;67169;50.268;8.694;2023-08-24T04:22:36;99757.69;;;15.96;92.43
77979;BME280;67169;50.268;8.694;2023-08-24T04:25:03;99770.44;;;16.09;91.54
77979;BME280;67169;50.268;8.694;2023-08-24T04:27:31;99762.59;;;16.05;91.46
77979;BME280;67169;50.268;8.694;2023-08-24T04:29:58;99752.78;;;16.02;92.58
77979;BME280;67169;50.268;8.694;2023-08-24T04:32:26;99726.63;;;16.01;92.21
77979;BME280;67169;50.268;8.694;2023-08-24T04:34:53;99714.31;;;16.10;92.40
77979;BME280;67169;50.268;8.694;2023-08-24T04:37:21;99685.81;;;16.03;92.67
77979;BME280;67169;50.268;8.694;2023-08-24T04:39:47;99670.81;;;15.97;93.65
77979;BME280;67169;50.268;8.694;2023-08-24T04:42:14;99689.81;;;15.97;94.36
77979;BME280;67169;50.268;8.694;2023-08-24T04:44:40;99732.59;;;15.92;94.65
77979;BME280;67169;50.268;8.694;2023-08-24T04:47:07;99751.50;;;15.94;94.75
77979;BME280;67169;50.268;8.694;2023-08-24T04:49:35;99753.25;;;15.95;94.80
77979;BME280;67169;50.268;8.694;2023-08-24T04:52:02;99745.78;;;15.98;95.05
77979;BME280;67169;50.268;8.694;2023-08-24T04:54:32;99741.84;;;16.04;94.58
77979;BME280;67169;50.268;8.694;2023-08-24T04:56:58;99761.41;;;16.09;94.39
77979;BME280;67169;50.268;8.694;2023-08-24T04:59:25;99766.56;;;16.13;94.32
77979;BME280;67169;50.268;8.694;2023-08-24T05:01:51;99770.63;;;16.21;93.88
77979;BME280;67169;50.268;8.694;2023-08-24T05:04:18;99773.66;;;16.30;93.91
77979;BME280;67169;50.268;8.694;2023-08-24T05:06:44;99778.53;;;16.40;93.39
77979;BME280;67169;50.268;8.694;2023-08-24T05:09:11;99789.50;;;16.38;92.84
77979;BME280;67169;50.268;8.694;2023-08-24T05:11:39;99795.63;;;16.42;92.68
77979;BME280;67169;50.268;8.694;2023-08-24T05:14:10;99800.66;;;16.48;92.69
77979;BME280;67169;50.268;8.694;2023-08-24T05:16:39;99820.06;;;16.56;92.90
77979;BME280;67169;50.268;8.694;2023-08-24T05:19:05;99833.16;;;16.64;92.67
77979;BME280;67169;50.268;8.694;2023-08-24T05:21:39;99827.16;;;16.73;91.50
77979;BME280;67169;50.268;8.694;2023-08-24T05:24:07;99857.09;;;17.01;90.03
77979;BME280;67169;50.268;8.694;2023-08-24T05:26:33;99851.94;;;17.25;87.16
77979;BME280;67169;50.268;8.694;2023-08-24T05:29:01;99862.09;;;17.50;85.50
77979;BME280;67169;50.268;8.694;2023-08-24T05:31:28;99872.19;;;17.63;85.08
77979;BME280;67169;50.268;8.694;2023-08-24T05:33:55;99848.66;;;17.62;84.34
77979;BME280;67169;50.268;8.694;2023-08-24T05:36:21;99874.06;;;17.89;83.40
77979;BME280;67169;50.268;8.694;2023-08-24T05:38:48;99862.47;;;18.00;82.99
77979;BME280;67169;50.268;8.694;2023-08-24T05:41:14;99854.97;;;18.03;82.48
77979;BME280;67169;50.268;8.694;2023-08-24T05:43:41;99844.66;;;18.09;82.32
77979;BME280;67169;50.268;8.694;2023-08-24T05:46:09;99866.81;;;18.30;82.36
77979;BME280;67169;50.268;8.694;2023-08-24T05:48:36;99867.72;;;18.43;82.12
77979;BME280;67169;50.268;8.694;2023-08-24T05:51:02;99864.03;;;18.57;81.35
77979;BME280;67169;50.268;8.694;2023-08-24T05:53:31;99856.44;;;18.62;80.63
77979;BME280;67169;50.268;8.694;2023-08-24T05:55:58;99872.59;;;18.90;82.24
77979;BME280;67169;50.268;8.694;2023-08-24T05:58:25;99868.66;;;18.94;82.46
77979;BME280;67169;50.268;8.694;2023-08-24T06:00:56;99876.75;;;18.96;82.81
77979;BME280;67169;50.268;8.694;2023-08-24T06:03:24;99874.22;;;19.06;83.86
77979;BME280;67169;50.268;8.694;2023-08-24T06:05:51;99881.31;;;19.21;83.33
77979;BME280;67169;50.268;8.694;2023-08-24T06:08:18;99881.31;;;19.21;84.33
77979;BME280;67169;50.268;8.694;2023-08-24T06:10:45;99881.53;;;19.18;84.51
77979;BME280;67169;50.268;8.694;2023-08-24T06:13:12;99877.06;;;19.17;85.31
77979;BME280;67169;50.268;8.694;2023-08-24T06:15:39;99861.38;;;19.08;85.09
77979;BME280;67169;50.268;8.694;2023-08-24T06:18:06;99863.00;;;19.10;83.13
77979;BME280;67169;50.268;8.694;2023-08-24T06:20:33;99871.94;;;19.12;84.37
77979;BME280;67169;50.268;8.694;2023-08-24T06:23:00;99882.53;;;19.17;85.18
77979;BME280;67169;50.268;8.694;2023-08-24T06:25:27;99867.81;;;19.07;87.79
77979;BME280;67169;50.268;8.694;2023-08-24T06:27:54;99866.50;;;19.00;89.22
77979;BME280;67169;50.268;8.694;2023-08-24T06:30:20;99861.06;;;19.00;90.02
77979;BME280;67169;50.268;8.694;2023-08-24T06:32:47;99859.28;;;18.98;90.69
77979;BME280;67169;50.268;8.694;2023-08-24T06:35:13;99848.81;;;18.92;90.46
77979;BME280;67169;50.268;8.694;2023-08-24T06:37:42;99833.22;;;18.69;91.01
77979;BME280;67169;50.268;8.694;2023-08-24T06:40:10;99815.53;;;18.36;90.98
77979;BME280;67169;50.268;8.694;2023-08-24T06:42:37;99868.94;;;18.64;91.78
77979;BME280;67169;50.268;8.694;2023-08-24T06:45:04;99865.78;;;18.58;92.59
77979;BME280;67169;50.268;8.694;2023-08-24T06:47:30;99860.97;;;18.48;93.51
77979;BME280;67169;50.268;8.694;2023-08-24T06:49:56;99840.28;;;18.59;93.58
77979;BME280;67169;50.268;8.694;2023-08-24T06:52:23;99819.25;;;18.48;93.69
77979;BME280;67169;50.268;8.694;2023-08-24T06:54:51;99798.63;;;18.44;93.49
77979;BME280;67169;50.268;8.694;2023-08-24T06:57:21;99784.28;;;18.42;93.72
77979;BME280;67169;50.268;8.694;2023-08-24T06:59:48;99753.19;;;18.19;94.58
77979;BME280;67169;50.268;8.694;2023-08-24T07:02:14;99730.78;;;18.15;95.03
77979;BME280;67169;50.268;8.694;2023-08-24T07:04:43;99733.50;;;18.15;95.65
77979;BME280;67169;50.268;8.694;2023-08-24T07:07:09;99721.28;;;18.08;95.60
77979;BME280;67169;50.268;8.694;2023-08-24T07:09:36;99729.00;;;18.01;96.41
77979;BME280;67169;50.268;8.694;2023-08-24T07:12:04;99715.06;;;17.93;96.89
77979;BME280;67169;50.268;8.694;2023-08-24T07:14:32;99760.59;;;18.17;96.97
77979;BME280;67169;50.268;8.694;2023-08-24T07:16:59;99772.16;;;18.20;96.60
77979;BME280;67169;50.268;8.694;2023-08-24T07:19:25;99779.25;;;18.36;95.97
77979;BME280;67169;50.268;8.694;2023-08-24T07:21:52;99748.97;;;18.66;96.01
77979;BME280;67169;50.268;8.694;2023-08-24T07:24:18;99725.09;;;18.82;94.70
77979;BME280;67169;50.268;8.694;2023-08-24T07:26:46;99747.44;;;18.87;94.62
77979;BME280;67169;50.268;8.694;2023-08-24T07:29:14;99750.69;;;19.05;94.44
77979;BME280;67169;50.268;8.694;2023-08-24T07:31:40;99762.22;;;19.21;94.09
77979;BME280;67169;50.268;8.694;2023-08-24T07:34:07;99762.06;;;19.36;93.34
77979;BME280;67169;50.268;8.694;2023-08-24T07:36:33;99771.16;;;19.48;93.28
77979;BME280;67169;50.268;8.694;2023-08-24T07:39:00;99766.66;;;19.59;91.38
77979;BME280;67169;50.268;8.694;2023-08-24T07:41:27;99767.09;;;19.66;90.00
77979;BME280;67169;50.268;8.694;2023-08-24T07:43:54;99737.31;;;19.50;87.73
77979;BME280;67169;50.268;8.694;2023-08-24T07:46:22;99741.06;;;19.49;88.42
77979;BME280;67169;50.268;8.694;2023-08-24T07:48:49;99741.41;;;19.44;88.84
77979;BME280;67169;50.268;8.694;2023-08-24T07:51:15;99741.34;;;19.57;89.16
77979;BME280;67169;50.268;8.694;2023-08-24T07:53:42;99719.03;;;19.39;88.10
77979;BME280;67169;50.268;8.694;2023-08-24T07:56:11;99733.28;;;19.56;88.72
77979;BME280;67169;50.268;8.694;2023-08-24T07:58:37;99730.50;;;19.44;88.30
77979;BME280;67169;50.268;8.694;2023-08-24T08:01:04;99746.53;;;19.73;88.19
77979;BME280;67169;50.268;8.694;2023-08-24T08:03:32;99740.09;;;19.74;88.57
77979;BME280;67169;50.268;8.694;2023-08-24T08:06:01;99739.25;;;19.85;87.77
77979;BME280;67169;50.268;8.694;2023-08-24T08:08:27;99733.72;;;19.98;86.88
77979;BME280;67169;50.268;8.694;2023-08-24T08:11:01;99723.63;;;20.22;86.72
77979;BME280;67169;50.268;8.694;2023-08-24T08:13:28;99716.06;;;20.37;85.64
77979;BME280;67169;50.268;8.694;2023-08-24T08:15:59;99700.81;;;20.34;84.61
77979;BME280;67169;50.268;8.694;2023-08-24T08:18:26;99668.38;;;20.30;84.42
77979;BME280;67169;50.268;8.694;2023-08-24T08:20:54;99664.03;;;20.50;84.04
77979;BME280;67169;50.268;8.694;2023-08-24T08:23:21;99673.09;;;20.39;83.61
77979;BME280;67169;50.268;8.694;2023-08-24T08:25:47;99686.28;;;20.34;83.71
77979;BME280;67169;50.268;8.694;2023-08-24T08:28:14;99683.78;;;20.31;82.42
77979;BME280;67169;50.268;8.694;2023-08-24T08:30:40;99708.63;;;20.28;82.10
77979;BME280;67169;50.268;8.694;2023-08-24T08:33:07;99711.88;;;19.98;81.57
77979;BME280;67169;50.268;8.694;2023-08-24T08:35:33;99706.28;;;19.99;81.54
77979;BME280;67169;50.268;8.694;2023-08-24T08:38:01;99705.94;;;20.50;81.25
77979;BME280;67169;50.268;8.694;2023-08-24T08:40:30;99699.78;;;21.25;79.34
77979;BME280;67169;50.268;8.694;2023-08-24T08:42:57;99693.06;;;21.73;75.49
77979;BME280;67169;50.268;8.694;2023-08-24T08:45:24;99701.09;;;21.86;72.38
77979;BME280;67169;50.268;8.694;2023-08-24T08:47:53;99697.81;;;22.24;71.90
77979;BME280;67169;50.268;8.694;2023-08-24T08:50:22;99708.66;;;22.14;70.94
77979;BME280;67169;50.268;8.694;2023-08-24T08:52:49;99710.09;;;22.60;70.33
77979;BME280;67169;50.268;8.694;2023-08-24T08:55:17;99694.63;;;22.80;71.50
77979;BME280;67169;50.268;8.694;2023-08-24T08:57:47;99684.97;;;23.36;72.16
77979;BME280;67169;50.268;8.694;2023-08-24T09:00:15;99683.59;;;23.71;70.59
77979;BME280;67169;50.268;8.694;2023-08-24T09:02:42;99679.53;;;24.04;66.38
77979;BME280;67169;50.268;8.694;2023-08-24T09:05:10;99682.66;;;24.28;67.22
77979;BME280;67169;50.268;8.694;2023-08-24T09:07:39;99685.13;;;24.51;67.67
77979;BME280;67169;50.268;8.694;2023-08-24T09:10:06;99670.13;;;24.73;66.04
77979;BME280;67169;50.268;8.694;2023-08-24T09:12:35;99663.78;;;24.62;62.78
77979;BME280;67169;50.268;8.694;2023-08-24T09:15:03;99655.41;;;24.92;61.89
77979;BME280;67169;50.268;8.694;2023-08-24T09:17:31;99669.56;;;25.24;58.91
77979;BME280;67169;50.268;8.694;2023-08-24T09:19:59;99668.47;;;25.17;58.28
77979;BME280;67169;50.268;8.694;2023-08-24T09:22:26;99673.94;;;25.45;58.67
77979;BME280;67169;50.268;8.694;2023-08-24T09:24:52;99661.56;;;25.67;58.53
77979;BME280;67169;50.268;8.694;2023-08-24T09:27:21;99657.34;;;25.90;58.26
77979;BME280;67169;50.268;8.694;2023-08-24T09:29:50;99657.59;;;26.23;57.11
77979;BME280;67169;50.268;8.694;2023-08-24T09:32:21;99644.25;;;26.36;55.94
77979;BME280;67169;50.268;8.694;2023-08-24T09:34:48;99629.06;;;26.58;57.31
77979;BME280;67169;50.268;8.694;2023-08-24T09:37:15;99591.09;;;26.52;55.16
77979;BME280;67169;50.268;8.694;2023-08-24T09:39:42;99635.66;;;26.65;53.95
77979;BME280;67169;50.268;8.694;2023-08-24T09:42:09;99627.34;;;27.08;56.81
77979;BME280;67169;50.268;8.694;2023-08-24T09:44:35;99627.16;;;27.52;53.51
77979;BME280;67169;50.268;8.694;2023-08-24T09:47:08;99610.91;;;27.73;53.65
77979;BME280;67169;50.268;8.694;2023-08-24T09:49:35;99615.13;;;27.77;52.18
77979;BME280;67169;50.268;8.694;2023-08-24T09:52:03;99594.22;;;27.91;48.75
77979;BME280;67169;50.268;8.694;2023-08-24T09:54:36;99598.16;;;28.05;50.13
77979;BME280;67169;50.268;8.694;2023-08-24T09:57:05;99585.03;;;27.99;53.73
77979;BME280;67169;50.268;8.694;2023-08-24T09:59:34;99587.41;;;28.18;50.45
77979;BME280;67169;50.268;8.694;2023-08-24T10:02:01;99582.69;;;28.51;52.24
77979;BME280;67169;50.268;8.694;2023-08-24T10:04:34;99577.25;;;28.66;50.69
77979;BME280;67169;50.268;8.694;2023-08-24T10:07:04;99574.41;;;28.82;48.15
77979;BME280;67169;50.268;8.694;2023-08-24T10:09:38;99564.19;;;28.83;46.81
77979;BME280;67169;50.268;8.694;2023-08-24T10:12:07;99565.34;;;28.97;47.06
77979;BME280;67169;50.268;8.694;2023-08-24T10:14:40;99572.59;;;29.06;46.31
77979;BME280;67169;50.268;8.694;2023-08-24T10:17:09;99565.06;;;28.83;47.32
77979;BME280;67169;50.268;8.694;2023-08-24T10:19:37;99553.75;;;28.93;46.96
77979;BME280;67169;50.268;8.694;2023-08-24T10:22:05;99549.97;;;28.55;46.95
77979;BME280;67169;50.268;8.694;2023-08-24T10:24:35;99549.50;;;29.14;47.95
77979;BME280;67169;50.268;8.694;2023-08-24T10:27:02;99543.50;;;29.56;46.63
77979;BME280;67169;50.268;8.694;2023-08-24T10:29:29;99536.47;;;29.45;46.36
77979;BME280;67169;50.268;8.694;2023-08-24T10:31:56;99518.13;;;28.90;46.85
77979;BME280;67169;50.268;8.694;2023-08-24T10:34:23;99523.59;;;29.06;46.80
77979;BME280;67169;50.268;8.694;2023-08-24T10:36:51;99523.59;;;29.06;46.54
77979;BME280;67169;50.268;8.694;2023-08-24T10:39:26;99537.34;;;29.23;49.79
77979;BME280;67169;50.268;8.694;2023-08-24T10:41:53;99533.63;;;29.07;47.42
77979;BME280;67169;50.268;8.694;2023-08-24T10:44:22;99530.25;;;29.20;50.03
77979;BME280;67169;50.268;8.694;2023-08-24T10:47:11;99524.22;;;29.17;46.60
77979;BME280;67169;50.268;8.694;2023-08-24T10:49:38;99517.25;;;28.98;46.46
77979;BME280;67169;50.268;8.694;2023-08-24T10:52:20;99518.63;;;29.02;46.47
77979;BME280;67169;50.268;8.694;2023-08-24T10:54:48;99525.06;;;28.94;45.91
77979;BME280;67169;50.268;8.694;2023-08-24T10:57:19;99528.41;;;28.81;48.17
77979;BME280;67169;50.268;8.694;2023-08-24T10:59:57;99522.22;;;28.71;47.77
77979;BME280;67169;50.268;8.694;2023-08-24T11:02:25;99514.28;;;28.68;49.63
77979;BME280;67169;50.268;8.694;2023-08-24T11:05:05;99489.25;;;28.61;46.99
77979;BME280;67169;50.268;8.694;2023-08-24T11:07:33;99507.28;;;28.49;47.66
77979;BME280;67169;50.268;8.694;2023-08-24T11:10:10;99505.53;;;28.56;47.28
77979;BME280;67169;50.268;8.694;2023-08-24T11:13:09;99521.31;;;29.10;46.12
77979;BME280;67169;50.268;8.694;2023-08-24T11:15:38;99510.88;;;29.20;46.96
77979;BME280;67169;50.268;8.694;2023-08-24T11:18:13;99500.38;;;29.07;48.57
77979;BME280;67169;50.268;8.694;2023-08-24T11:20:42;99506.91;;;29.38;47.15
77979;BME280;67169;50.268;8.694;2023-08-24T11:23:12;99510.28;;;29.48;46.51
77979;BME280;67169;50.268;8.694;2023-08-24T11:25:38;99498.84;;;29.51;46.20
77979;BME280;67169;50.268;8.694;2023-08-24T11:28:07;99504.69;;;29.56;46.23
77979;BME280;67169;50.268;8.694;2023-08-24T11:30:34;99501.66;;;29.66;47.28
77979;BME280;67169;50.268;8.694;2023-08-24T11:33:01;99473.41;;;29.70;46.81
77979;BME280;67169;50.268;8.694;2023-08-24T11:35:29;99484.50;;;30.00;45.93
77979;BME280;67169;50.268;8.694;2023-08-24T11:37:58;99482.59;;;29.86;44.30
77979;BME280;67169;50.268;8.694;2023-08-24T11:40:29;99477.56;;;29.66;44.79
77979;BME280;67169;50.268;8.694;2023-08-24T11:42:56;99477.63;;;29.81;49.87
77979;BME280;67169;50.268;8.694;2023-08-24T11:45:23;99469.69;;;30.08;45.19
77979;BME280;67169;50.268;8.694;2023-08-24T11:47:50;99455.72;;;30.31;47.33
77979;BME280;67169;50.268;8.694;2023-08-24T11:50:17;99465.41;;;31.07;43.83
77979;BME280;67169;50.268;8.694;2023-08-24T11:52:43;99455.09;;;31.01;43.14
77979;BME280;67169;50.268;8.694;2023-08-24T11:55:11;99441.47;;;30.85;45.07
77979;BME280;67169;50.268;8.694;2023-08-24T11:57:39;99436.44;;;30.95;42.70
77979;BME280;67169;50.268;8.694;2023-08-24T12:00:06;99430.19;;;30.71;43.03
77979;BME280;67169;50.268;8.694;2023-08-24T12:02:34;99426.69;;;30.63;46.21
77979;BME280;67169;50.268;8.694;2023-08-24T12:05:03;99417.09;;;30.29;46.47
77979;BME280;67169;50.268;8.694;2023-08-24T12:07:32;99418.34;;;30.26;46.61
77979;BME280;67169;50.268;8.694;2023-08-24T12:10:00;99420.59;;;30.53;46.38
77979;BME280;67169;50.268;8.694;2023-08-24T12:12:28;99416.66;;;30.83;46.64
77979;BME280;67169;50.268;8.694;2023-08-24T12:14:58;99416.22;;;31.01;45.17
77979;BME280;67169;50.268;8.694;2023-08-24T12:17:24;99365.56;;;31.27;43.54
77979;BME280;67169;50.268;8.694;2023-08-24T12:19:57;99412.44;;;31.58;45.16
77979;BME280;67169;50.268;8.694;2023-08-24T12:22:24;99413.78;;;31.69;41.87
77979;BME280;67169;50.268;8.694;2023-08-24T12:24:51;99424.56;;;31.79;40.19
77979;BME280;67169;50.268;8.694;2023-08-24T12:27:18;99409.84;;;31.85;42.96
77979;BME280;67169;50.268;8.694;2023-08-24T12:29:45;99400.47;;;31.92;42.02
77979;BME280;67169;50.268;8.694;2023-08-24T12:32:13;99401.47;;;31.50;40.72
77979;BME280;67169;50.268;8.694;2023-08-24T12:34:41;99397.28;;;31.61;40.60
77979;BME280;67169;50.268;8.694;2023-08-24T12:37:08;99384.63;;;31.58;45.06
77979;BME280;67169;50.268;8.694;2023-08-24T12:39:35;99381.97;;;30.94;43.59
77979;BME280;67169;50.268;8.694;2023-08-24T12:42:03;99376.28;;;30.44;42.86
77979;BME280;67169;50.268;8.694;2023-08-24T12:44:29;99370.81;;;30.72;41.64
77979;BME280;67169;50.268;8.694;2023-08-24T12:46:59;99374.28;;;30.96;40.71
77979;BME280;67169;50.268;8.694;2023-08-24T12:49:27;99372.09;;;30.91;43.92
77979;BME280;67169;50.268;8.694;2023-08-24T12:51:53;99368.78;;;30.60;44.06
77979;BME280;67169;50.268;8.694;2023-08-24T12:54:20;99374.91;;;30.55;41.57
77979;BME280;67169;50.268;8.694;2023-08-24T12:56:47;99395.06;;;30.27;42.31
77979;BME280;67169;50.268;8.694;2023-08-24T12:59:13;99385.31;;;30.17;45.32
77979;BME280;67169;50.268;8.694;2023-08-24T13:01:40;99385.44;;;29.94;45.12
77979;BME280;67169;50.268;8.694;2023-08-24T13:04:07;99392.69;;;29.80;47.58